createdAt,value
2022-12-28T00:01:21.428Z,4.30
2022-12-28T00:03:50.284Z,4.30
2022-12-28T00:06:19.142Z,4.30
2022-12-28T00:08:47.359Z,4.20
2022-12-28T00:11:27.781Z,4.20
2022-12-28T00:14:00.519Z,4.20
2022-12-28T00:16:30.403Z,4.20
2022-12-28T00:19:00.151Z,4.30
2022-12-28T00:21:28.964Z,4.40
2022-12-28T00:23:58.712Z,4.40
2022-12-28T00:26:27.297Z,4.50
2022-12-28T00:29:01.655Z,4.50
2022-12-28T00:31:33.468Z,4.60
2022-12-28T00:34:02.068Z,4.50
2022-12-28T00:37:11.204Z,4.60
2022-12-28T00:39:18.475Z,4.60
2022-12-28T00:41:46.881Z,4.60
2022-12-28T00:44:15.060Z,4.70
2022-12-28T00:46:44.806Z,4.70
2022-12-28T00:49:13.023Z,4.70
2022-12-28T00:51:41.238Z,4.70
2022-12-28T00:54:09.496Z,4.70
2022-12-28T00:56:37.763Z,4.70
2022-12-28T00:59:05.975Z,4.70
2022-12-28T01:01:34.297Z,4.70
2022-12-28T01:04:04.295Z,4.70
2022-12-28T01:06:32.569Z,4.70
2022-12-28T01:09:01.403Z,4.80
2022-12-28T01:11:30.862Z,4.80
2022-12-28T01:14:00.724Z,4.80
2022-12-28T01:16:31.140Z,4.70
2022-12-28T01:19:01.258Z,4.70
2022-12-28T01:21:32.140Z,4.70
2022-12-28T01:24:02.001Z,4.70
2022-12-28T01:26:30.719Z,4.70
2022-12-28T01:29:00.045Z,4.70
2022-12-28T01:31:28.575Z,4.70
2022-12-28T01:33:56.954Z,4.70
2022-12-28T01:36:26.361Z,4.70
2022-12-28T01:38:57.820Z,4.70
2022-12-28T01:41:27.340Z,4.70
2022-12-28T01:44:29.042Z,4.70
2022-12-28T01:46:59.455Z,4.80
2022-12-28T01:49:29.803Z,4.80
2022-12-28T01:52:01.579Z,4.80
2022-12-28T01:54:34.479Z,4.80
2022-12-28T01:57:02.754Z,4.80
2022-12-28T01:59:33.859Z,4.90
2022-12-28T02:02:02.362Z,4.90
2022-12-28T02:04:30.844Z,4.90
2022-12-28T02:06:59.191Z,4.90
2022-12-28T02:09:33.004Z,5.00
2022-12-28T02:12:01.785Z,5.00
2022-12-28T02:14:30.351Z,5.10
2022-12-28T02:16:58.674Z,5.10
2022-12-28T02:19:34.971Z,5.10
2022-12-28T02:22:18.432Z,5.00
2022-12-28T02:25:12.279Z,5.10
2022-12-28T02:27:54.247Z,5.10
2022-12-28T02:30:23.878Z,5.10
2022-12-28T02:32:58.259Z,5.10
2022-12-28T02:35:35.774Z,5.10
2022-12-28T02:38:07.852Z,5.20
2022-12-28T02:40:39.185Z,5.20
2022-12-28T02:43:07.701Z,5.10
2022-12-28T02:45:57.049Z,5.10
2022-12-28T02:48:54.422Z,5.20
2022-12-28T02:51:41.296Z,5.20
2022-12-28T02:54:55.809Z,5.20
2022-12-28T02:57:36.250Z,5.20
2022-12-28T03:00:07.207Z,5.20
2022-12-28T03:02:56.721Z,5.20
2022-12-28T03:05:47.334Z,5.20
2022-12-28T03:08:21.646Z,5.20
2022-12-28T03:10:54.111Z,5.20
2022-12-28T03:13:45.452Z,5.20
2022-12-28T03:16:19.573Z,5.20
2022-12-28T03:19:10.445Z,5.20
2022-12-28T03:21:56.242Z,5.20
2022-12-28T03:24:42.738Z,5.20
2022-12-28T03:27:30.301Z,5.10
2022-12-28T03:30:19.769Z,5.20
2022-12-28T03:32:48.556Z,5.20
2022-12-28T03:35:19.456Z,5.20
2022-12-28T03:37:52.293Z,5.20
2022-12-28T03:40:26.031Z,5.20
2022-12-28T03:43:12.771Z,5.20
2022-12-28T03:45:47.652Z,5.20
2022-12-28T03:48:17.227Z,5.10
2022-12-28T03:50:48.577Z,5.10
2022-12-28T03:53:18.262Z,5.10
2022-12-28T03:55:46.447Z,5.10
2022-12-28T03:58:14.670Z,5.10
2022-12-28T04:00:42.875Z,5.10
2022-12-28T04:03:11.165Z,5.10
2022-12-28T04:05:39.387Z,5.10
2022-12-28T04:08:09.047Z,5.10
2022-12-28T04:10:37.279Z,5.10
2022-12-28T04:13:05.510Z,5.00
2022-12-28T04:15:33.793Z,5.00
2022-12-28T04:18:02.373Z,5.00
2022-12-28T04:20:30.667Z,5.00
2022-12-28T04:22:58.977Z,5.00
2022-12-28T04:25:28.658Z,5.00
2022-12-28T04:27:56.855Z,4.90
2022-12-28T04:30:25.104Z,4.90
2022-12-28T04:32:53.358Z,5.00
2022-12-28T04:35:21.561Z,4.90
2022-12-28T04:37:49.833Z,4.90
2022-12-28T04:40:18.151Z,4.90
2022-12-28T04:42:47.773Z,4.90
2022-12-28T04:45:21.798Z,4.90
2022-12-28T04:47:50.510Z,4.90
2022-12-28T04:50:18.850Z,4.90
2022-12-28T04:52:47.188Z,4.90
2022-12-28T04:55:32.133Z,4.90
2022-12-28T04:58:02.803Z,4.90
2022-12-28T05:00:31.067Z,4.90
2022-12-28T05:03:00.187Z,4.90
2022-12-28T05:05:28.824Z,4.90
2022-12-28T05:07:57.422Z,4.80
2022-12-28T05:10:25.616Z,4.80
2022-12-28T05:12:55.006Z,4.70
2022-12-28T05:15:24.693Z,4.70
2022-12-28T05:17:53.104Z,4.60
2022-12-28T05:20:21.343Z,4.60
2022-12-28T05:22:49.589Z,4.60
2022-12-28T05:25:17.891Z,4.60
2022-12-28T05:27:46.104Z,4.60
2022-12-28T05:30:14.379Z,4.50
2022-12-28T05:32:43.981Z,4.60
2022-12-28T05:35:12.251Z,4.50
2022-12-28T05:37:40.436Z,4.60
2022-12-28T05:40:09.830Z,4.60
2022-12-28T05:42:38.061Z,4.50
2022-12-28T05:45:07.047Z,4.50
2022-12-28T05:47:35.283Z,4.50
2022-12-28T05:50:05.391Z,4.50
2022-12-28T05:52:33.540Z,4.50
2022-12-28T05:55:01.729Z,4.40
2022-12-28T05:57:29.920Z,4.40
2022-12-28T05:59:58.134Z,4.40
2022-12-28T06:02:27.799Z,4.40
2022-12-28T06:04:56.190Z,4.40
2022-12-28T06:07:25.798Z,4.40
2022-12-28T06:09:53.969Z,4.40
2022-12-28T06:12:22.766Z,4.40
2022-12-28T06:14:51.043Z,4.40
2022-12-28T06:17:19.309Z,4.40
2022-12-28T06:19:48.239Z,4.40
2022-12-28T06:22:16.445Z,4.40
2022-12-28T06:24:46.065Z,4.40
2022-12-28T06:27:14.232Z,4.40
2022-12-28T06:29:42.425Z,4.40
2022-12-28T06:32:10.643Z,4.40
2022-12-28T06:34:38.908Z,4.40
2022-12-28T06:37:07.167Z,4.40
2022-12-28T06:39:35.338Z,4.40
2022-12-28T06:42:05.019Z,4.50
2022-12-28T06:44:33.735Z,4.40
2022-12-28T06:47:03.916Z,4.50
2022-12-28T06:49:32.102Z,4.40
2022-12-28T06:52:00.303Z,4.40
2022-12-28T06:54:28.541Z,4.40
2022-12-28T06:56:56.777Z,4.40
2022-12-28T06:59:26.410Z,4.40
2022-12-28T07:01:54.856Z,4.40
2022-12-28T07:04:23.169Z,4.40
2022-12-28T07:06:51.427Z,4.40
2022-12-28T07:09:19.787Z,4.50
2022-12-28T07:11:51.098Z,4.50
2022-12-28T07:14:19.470Z,4.40
2022-12-28T07:16:49.321Z,4.50
2022-12-28T07:19:17.619Z,4.50
2022-12-28T07:21:45.833Z,4.50
2022-12-28T07:24:14.006Z,4.50
2022-12-28T07:26:42.208Z,4.50
2022-12-28T07:29:10.600Z,4.50
2022-12-28T07:31:45.164Z,4.60
2022-12-28T07:34:16.431Z,4.60
2022-12-28T07:36:44.938Z,4.60
2022-12-28T07:39:13.195Z,4.60
2022-12-28T07:41:41.418Z,4.70
2022-12-28T07:44:09.637Z,4.70
2022-12-28T07:46:39.146Z,4.70
2022-12-28T07:49:07.879Z,4.70
2022-12-28T07:51:39.080Z,4.70
2022-12-28T07:54:07.678Z,4.70
2022-12-28T07:59:04.780Z,4.80
2022-12-28T08:01:35.392Z,4.80
2022-12-28T08:04:06.147Z,4.80
2022-12-28T08:06:35.892Z,4.80
2022-12-28T08:09:06.244Z,4.90
2022-12-28T08:11:36.060Z,4.90
2022-12-28T08:14:05.623Z,4.90
2022-12-28T08:16:35.564Z,5.00
2022-12-28T08:19:04.000Z,5.00
2022-12-28T08:21:35.468Z,5.00
2022-12-28T08:24:05.766Z,5.00
2022-12-28T08:26:36.248Z,5.00
2022-12-28T08:29:07.844Z,5.00
2022-12-28T08:31:37.934Z,5.10
2022-12-28T08:34:07.524Z,5.10
2022-12-28T08:36:35.856Z,5.10
2022-12-28T08:39:06.306Z,5.10
2022-12-28T08:41:34.668Z,5.20
2022-12-28T08:44:03.103Z,5.20
2022-12-28T08:46:32.632Z,5.20
2022-12-28T08:49:01.844Z,5.20
2022-12-28T08:51:33.734Z,5.20
2022-12-28T08:54:03.283Z,5.30
2022-12-28T08:56:36.175Z,5.30
2022-12-28T08:59:05.051Z,5.40
2022-12-28T09:01:40.793Z,5.40
2022-12-28T09:04:14.748Z,5.40
2022-12-28T09:06:43.212Z,5.40
2022-12-28T09:09:13.452Z,5.50
2022-12-28T09:11:43.582Z,5.50
2022-12-28T09:14:20.357Z,5.50
2022-12-28T09:16:51.523Z,5.50
2022-12-28T09:19:19.892Z,5.50
2022-12-28T09:21:49.377Z,5.60
2022-12-28T09:24:17.902Z,5.60
2022-12-28T09:26:47.642Z,5.70
2022-12-28T09:29:16.015Z,5.70
2022-12-28T09:31:44.448Z,5.80
2022-12-28T09:37:02.418Z,5.80
2022-12-28T09:39:30.905Z,5.80
2022-12-28T09:42:01.960Z,5.90
2022-12-28T09:44:48.576Z,5.90
2022-12-28T09:47:23.389Z,5.90
2022-12-28T09:50:03.511Z,5.90
2022-12-28T09:52:33.544Z,6.00
2022-12-28T09:55:08.747Z,6.00
2022-12-28T09:57:43.198Z,6.00
2022-12-28T10:00:20.417Z,6.00
2022-12-28T10:02:53.985Z,6.00
2022-12-28T10:05:23.185Z,6.10
2022-12-28T10:07:52.602Z,6.10
2022-12-28T10:10:22.936Z,6.10
2022-12-28T10:12:52.962Z,6.10
2022-12-28T10:15:23.228Z,6.20
2022-12-28T10:17:51.507Z,6.20
2022-12-28T10:20:21.307Z,6.30
2022-12-28T10:22:52.185Z,6.20
2022-12-28T10:25:22.459Z,6.20
2022-12-28T10:27:52.366Z,6.20
2022-12-28T10:30:26.958Z,6.20
2022-12-28T10:33:02.160Z,6.20
2022-12-28T10:35:34.858Z,6.30
2022-12-28T10:38:04.830Z,6.30
2022-12-28T10:40:35.116Z,6.30
2022-12-28T10:43:10.714Z,6.40
2022-12-28T10:45:41.723Z,6.40
2022-12-28T10:48:14.352Z,6.40
2022-12-28T10:50:47.748Z,6.50
2022-12-28T10:53:21.702Z,6.50
2022-12-28T10:55:49.851Z,6.50
2022-12-28T10:58:32.887Z,6.50
2022-12-28T11:01:06.751Z,6.50
2022-12-28T11:03:38.425Z,6.50
2022-12-28T11:06:27.578Z,6.50
2022-12-28T11:09:14.766Z,6.60
2022-12-28T11:11:43.880Z,6.60
2022-12-28T11:14:26.399Z,6.60
2022-12-28T11:16:54.832Z,6.60
2022-12-28T11:19:23.517Z,6.70
2022-12-28T11:21:53.236Z,6.70
2022-12-28T11:24:30.121Z,6.70
2022-12-28T11:27:00.819Z,6.70
2022-12-28T11:29:30.725Z,6.80
2022-12-28T11:32:02.430Z,6.80
2022-12-28T11:34:32.557Z,6.80
2022-12-28T11:37:02.492Z,6.90
2022-12-28T11:39:47.681Z,6.90
2022-12-28T11:42:55.745Z,7.00
2022-12-28T11:45:57.311Z,7.00
2022-12-28T11:48:50.899Z,7.00
2022-12-28T11:51:22.276Z,7.00
2022-12-28T11:53:58.613Z,7.10
2022-12-28T11:56:51.979Z,7.10
2022-12-28T11:59:26.854Z,7.10
2022-12-28T12:02:00.354Z,7.20
2022-12-28T12:04:39.428Z,7.20
2022-12-28T12:07:31.917Z,7.30
2022-12-28T12:10:35.763Z,7.30
2022-12-28T12:13:44.339Z,7.40
2022-12-28T12:16:28.709Z,7.40
2022-12-28T12:19:00.721Z,7.50
2022-12-28T12:21:34.665Z,7.50
2022-12-28T12:24:20.084Z,7.50
2022-12-28T12:26:53.369Z,7.60
2022-12-28T12:29:29.246Z,7.60
2022-12-28T12:32:02.803Z,7.60
2022-12-28T12:34:43.139Z,7.60
2022-12-28T12:37:44.072Z,7.60
2022-12-28T12:40:59.067Z,7.70
2022-12-28T12:43:37.730Z,7.70
2022-12-28T12:46:42.936Z,7.70
2022-12-28T12:49:44.774Z,7.70
2022-12-28T12:52:27.756Z,7.70
2022-12-28T12:55:16.764Z,7.70
2022-12-28T12:57:58.108Z,7.70
2022-12-28T13:00:33.999Z,7.80
2022-12-28T13:03:25.416Z,7.80
2022-12-28T13:05:58.745Z,7.90
2022-12-28T13:08:38.424Z,7.80
2022-12-28T13:11:10.851Z,7.80
2022-12-28T13:13:42.129Z,7.90
2022-12-28T13:16:12.701Z,7.90
2022-12-28T13:18:45.600Z,7.90
2022-12-28T13:21:22.241Z,7.90
2022-12-28T13:23:51.899Z,7.90
2022-12-28T13:26:26.522Z,7.90
2022-12-28T13:29:00.962Z,8.00
2022-12-28T13:31:35.247Z,8.00
2022-12-28T13:34:06.175Z,8.00
2022-12-28T13:36:36.133Z,7.90
2022-12-28T13:39:13.862Z,8.00
2022-12-28T13:41:52.447Z,8.00
2022-12-28T13:44:39.997Z,8.00
2022-12-28T13:47:19.761Z,8.00
2022-12-28T13:49:55.174Z,8.10
2022-12-28T13:52:32.006Z,8.00
2022-12-28T13:55:05.824Z,8.10
2022-12-28T13:57:46.854Z,8.10
2022-12-28T14:00:19.054Z,8.10
2022-12-28T14:02:49.362Z,8.10
2022-12-28T14:05:20.870Z,8.20
2022-12-28T14:07:51.934Z,8.20
2022-12-28T14:10:21.741Z,8.20
2022-12-28T14:12:51.327Z,8.20
2022-12-28T14:15:20.789Z,8.20
2022-12-28T14:17:51.892Z,8.20
2022-12-28T14:20:20.766Z,8.20
2022-12-28T14:22:50.641Z,8.20
2022-12-28T14:25:22.388Z,8.20
2022-12-28T14:27:57.439Z,8.20
2022-12-28T14:30:30.905Z,8.30
2022-12-28T14:33:08.494Z,8.30
2022-12-28T14:35:46.983Z,8.30
2022-12-28T14:38:21.690Z,8.30
2022-12-28T14:40:56.695Z,8.30
2022-12-28T14:43:29.024Z,8.30
2022-12-28T14:46:07.272Z,8.30
2022-12-28T14:48:40.622Z,8.30
2022-12-28T14:51:29.235Z,8.30
2022-12-28T14:54:23.828Z,8.30
2022-12-28T14:56:56.393Z,8.30
2022-12-28T14:59:31.071Z,8.30
2022-12-28T15:01:59.703Z,8.30
2022-12-28T15:04:37.014Z,8.30
2022-12-28T15:07:06.935Z,8.30
2022-12-28T15:09:37.431Z,8.30
2022-12-28T15:12:11.727Z,8.30
2022-12-28T15:14:40.229Z,8.40
2022-12-28T15:17:09.259Z,8.40
2022-12-28T15:19:38.334Z,8.40
2022-12-28T15:22:07.064Z,8.40
2022-12-28T15:24:37.124Z,8.40
2022-12-28T15:27:06.340Z,8.40
2022-12-28T15:32:23.163Z,8.40
2022-12-28T15:34:51.686Z,8.40
2022-12-28T15:37:20.223Z,8.50
2022-12-28T15:39:50.997Z,8.50
2022-12-28T15:42:19.402Z,8.50
2022-12-28T15:44:48.723Z,8.50
2022-12-28T15:47:17.297Z,8.50
2022-12-28T15:49:45.808Z,8.50
2022-12-28T15:52:14.337Z,8.50
2022-12-28T15:54:47.134Z,8.50
2022-12-28T15:57:17.313Z,8.50
2022-12-28T15:59:45.731Z,8.50
2022-12-28T16:02:14.707Z,8.50
2022-12-28T16:04:43.757Z,8.50
2022-12-28T16:07:12.627Z,8.40
2022-12-28T16:09:41.015Z,8.40
2022-12-28T16:12:09.769Z,8.40
2022-12-28T16:14:39.992Z,8.40
2022-12-28T16:17:08.402Z,8.40
2022-12-28T16:19:36.850Z,8.40
2022-12-28T16:22:05.237Z,8.40
2022-12-28T16:24:33.852Z,8.40
2022-12-28T16:27:02.250Z,8.40
2022-12-28T16:29:30.729Z,8.40
2022-12-28T16:32:02.067Z,8.40
2022-12-28T16:34:31.692Z,8.30
2022-12-28T16:37:00.479Z,8.30
2022-12-28T16:39:30.035Z,8.30
2022-12-28T16:41:59.525Z,8.30
2022-12-28T16:44:29.435Z,8.30
2022-12-28T16:47:00.433Z,8.30
2022-12-28T16:49:29.661Z,8.30
2022-12-28T16:51:58.592Z,8.30
2022-12-28T16:54:29.055Z,8.30
2022-12-28T16:56:57.584Z,8.30
2022-12-28T16:59:28.982Z,8.20
2022-12-28T17:02:01.618Z,8.20
2022-12-28T17:04:30.199Z,8.20
2022-12-28T17:06:59.601Z,8.30
2022-12-28T17:09:28.057Z,8.20
2022-12-28T17:11:56.569Z,8.20
2022-12-28T17:14:36.864Z,8.20
2022-12-28T17:17:07.981Z,8.20
2022-12-28T17:19:37.126Z,8.20
2022-12-28T17:22:06.002Z,8.20
2022-12-28T17:24:34.678Z,8.20
2022-12-28T17:27:07.704Z,8.10
2022-12-28T17:29:38.284Z,8.10
2022-12-28T17:32:08.972Z,8.10
2022-12-28T17:34:37.822Z,8.10
2022-12-28T17:37:06.491Z,8.20
2022-12-28T17:39:40.342Z,8.20
2022-12-28T17:42:10.323Z,8.10
2022-12-28T17:44:39.194Z,8.10
2022-12-28T17:47:09.786Z,8.10
2022-12-28T17:49:38.192Z,8.10
2022-12-28T17:52:06.900Z,8.10
2022-12-28T17:54:35.680Z,8.10
2022-12-28T17:57:04.280Z,8.20
2022-12-28T17:59:32.737Z,8.20
2022-12-28T18:02:01.820Z,8.20
2022-12-28T18:04:32.101Z,8.20
2022-12-28T18:07:00.470Z,8.20
2022-12-28T18:09:28.896Z,8.30
2022-12-28T18:11:57.347Z,8.30
2022-12-28T18:14:25.993Z,8.30
2022-12-28T18:16:54.791Z,8.30
2022-12-28T18:19:23.364Z,8.30
2022-12-28T18:21:53.199Z,8.20
2022-12-28T18:24:22.465Z,8.20
2022-12-28T18:26:51.133Z,8.30
2022-12-28T18:29:19.677Z,8.20
2022-12-28T18:31:48.109Z,8.20
2022-12-28T18:34:16.528Z,8.20
2022-12-28T18:36:45.011Z,8.20
2022-12-28T18:39:14.841Z,8.10
2022-12-28T18:41:43.202Z,8.10
2022-12-28T18:44:11.620Z,8.20
2022-12-28T18:46:40.119Z,8.10
2022-12-28T18:49:08.601Z,8.10
2022-12-28T18:51:37.108Z,8.10
2022-12-28T18:54:06.085Z,8.10
2022-12-28T18:56:35.987Z,8.10
2022-12-28T18:59:04.502Z,8.10
2022-12-28T19:02:05.135Z,8.00
2022-12-28T19:04:21.641Z,8.00
2022-12-28T19:06:50.250Z,8.00
2022-12-28T19:09:19.066Z,8.00
2022-12-28T19:11:49.468Z,8.00
2022-12-28T19:14:18.157Z,8.00
2022-12-28T19:16:46.880Z,8.00
2022-12-28T19:19:17.109Z,8.00
2022-12-28T19:21:46.032Z,8.00
2022-12-28T19:24:17.840Z,8.00
2022-12-28T19:26:48.194Z,8.00
2022-12-28T19:29:17.386Z,8.00
2022-12-28T19:31:46.111Z,8.00
2022-12-28T19:34:15.802Z,8.00
2022-12-28T19:36:44.304Z,8.00
2022-12-28T19:39:13.157Z,8.00
2022-12-28T19:41:41.579Z,8.00
2022-12-28T19:44:11.574Z,8.00
2022-12-28T19:46:40.244Z,8.00
2022-12-28T19:49:08.491Z,8.00
2022-12-28T19:51:37.055Z,7.90
2022-12-28T19:54:05.305Z,7.90
2022-12-28T19:56:33.938Z,8.00
2022-12-28T19:59:06.437Z,8.00
2022-12-28T20:01:39.211Z,8.00
2022-12-28T20:04:13.510Z,8.00
2022-12-28T20:06:44.135Z,8.00
2022-12-28T20:09:14.407Z,7.90
2022-12-28T20:11:43.072Z,8.00
2022-12-28T20:14:14.300Z,8.00
2022-12-28T20:16:45.029Z,7.90
2022-12-28T20:19:14.377Z,7.90
2022-12-28T20:21:43.251Z,7.90
2022-12-28T20:24:13.708Z,7.90
2022-12-28T20:26:42.123Z,7.90
2022-12-28T20:29:10.678Z,7.80
2022-12-28T20:31:38.926Z,7.80
2022-12-28T20:34:08.747Z,7.80
2022-12-28T20:36:37.167Z,7.80
2022-12-28T20:39:05.602Z,7.80
2022-12-28T20:41:51.857Z,7.80
2022-12-28T20:44:25.787Z,7.70
2022-12-28T20:46:55.666Z,7.70
2022-12-28T20:49:27.309Z,7.70
2022-12-28T20:52:10.974Z,7.80
2022-12-28T20:54:39.467Z,7.80
2022-12-28T20:57:07.842Z,7.80
2022-12-28T20:59:36.357Z,7.80
2022-12-28T21:02:04.878Z,7.90
2022-12-28T21:04:34.823Z,7.90
2022-12-28T21:07:04.811Z,7.90
2022-12-28T21:09:33.480Z,7.80
2022-12-28T21:12:01.929Z,7.80
2022-12-28T21:14:30.425Z,7.80
2022-12-28T21:16:58.921Z,7.80
2022-12-28T21:19:27.415Z,7.80
2022-12-28T21:21:57.273Z,7.70
2022-12-28T21:24:26.070Z,7.70
2022-12-28T21:26:54.523Z,7.60
2022-12-28T21:29:26.047Z,7.60
2022-12-28T21:31:55.184Z,7.60
2022-12-28T21:34:23.665Z,7.60
2022-12-28T21:36:51.872Z,7.50
2022-12-28T21:39:21.743Z,7.50
2022-12-28T21:41:50.220Z,7.50
2022-12-28T21:44:20.659Z,7.50
2022-12-28T21:46:50.771Z,7.50
2022-12-28T21:49:19.320Z,7.50
2022-12-28T21:51:48.348Z,7.50
2022-12-28T21:54:19.193Z,7.50
2022-12-28T21:56:51.415Z,7.40
2022-12-28T21:59:20.012Z,7.40
2022-12-28T22:02:05.970Z,7.40
2022-12-28T22:04:55.609Z,7.40
2022-12-28T22:07:28.953Z,7.40
2022-12-28T22:10:14.539Z,7.40
2022-12-28T22:12:44.135Z,7.40
2022-12-28T22:15:31.194Z,7.40
2022-12-28T22:18:01.960Z,7.30
2022-12-28T22:20:30.980Z,7.30
2022-12-28T22:23:01.578Z,7.30
2022-12-28T22:25:31.856Z,7.30
2022-12-28T22:28:01.908Z,7.30
2022-12-28T22:30:31.129Z,7.30
2022-12-28T22:32:59.320Z,7.30
2022-12-28T22:35:27.600Z,7.30
2022-12-28T22:37:55.860Z,7.30
2022-12-28T22:40:24.228Z,7.30
2022-12-28T22:42:52.619Z,7.30
2022-12-28T22:45:23.567Z,7.30
2022-12-28T22:47:55.227Z,7.40
2022-12-28T22:50:23.437Z,7.30
2022-12-28T22:52:51.657Z,7.30
2022-12-28T22:55:20.210Z,7.30
2022-12-28T22:57:48.442Z,7.30
2022-12-28T23:00:17.161Z,7.30
2022-12-28T23:02:48.208Z,7.20
2022-12-28T23:05:16.700Z,7.20
2022-12-28T23:07:45.058Z,7.20
2022-12-28T23:10:13.245Z,7.20
2022-12-28T23:12:41.525Z,7.20
2022-12-28T23:15:18.872Z,7.20
2022-12-28T23:17:49.996Z,7.20
2022-12-28T23:20:32.984Z,7.20
2022-12-28T23:23:18.660Z,7.20
2022-12-28T23:26:04.493Z,7.20
2022-12-28T23:28:35.840Z,7.20
2022-12-28T23:31:04.470Z,7.30
2022-12-28T23:33:34.423Z,7.30
2022-12-28T23:36:04.512Z,7.20
2022-12-28T23:38:34.378Z,7.20
2022-12-28T23:41:24.694Z,7.20
2022-12-28T23:43:53.164Z,7.30
2022-12-28T23:46:21.361Z,7.30
2022-12-28T23:48:51.041Z,7.30
2022-12-28T23:51:19.466Z,7.30
2022-12-28T23:53:47.881Z,7.30
2022-12-28T23:56:16.096Z,7.30
2022-12-28T23:58:44.296Z,7.30
